Time;durP1;ratioP1;P1;durP2;ratioP2;P2;SDS_P1;SDS_P2;PMS_P1;PMS_P2;Temp;Humidity;BMP_temperature;BMP_pressure;BME280_temperature;BME280_humidity;BME280_pressure;Samples;Min_cycle;Max_cycle;Signal;HPM_P1;HPM_P2
2023/05/12 00:02:24;;;;;;;4.28;2.85;;;17.30;65.60;;;;;;4975835;28;20034;-64
2023/05/12 00:04:50;;;;;;;3.78;3.05;;;17.20;64.30;;;;;;4967458;28;20031;-64
2023/05/12 00:07:16;;;;;;;4.35;2.75;;;17.10;63.70;;;;;;4962655;28;20858;-64
2023/05/12 00:09:42;;;;;;;3.20;2.78;;;17.20;66.20;;;;;;4974314;28;20037;-64
2023/05/12 00:12:08;;;;;;;6.13;2.80;;;17.20;67.90;;;;;;4968890;28;20121;-64
2023/05/12 00:14:35;;;;;;;3.08;2.78;;;17.10;67.40;;;;;;4969793;28;20044;-63
2023/05/12 00:17:05;;;;;;;4.07;3.25;;;17.10;67.50;;;;;;4959806;28;20084;-64
2023/05/12 00:19:32;;;;;;;4.78;2.92;;;17.00;66.40;;;;;;4960265;28;20711;-64
2023/05/12 00:21:58;;;;;;;3.92;2.90;;;17.00;67.90;;;;;;4969281;28;20042;-63
2023/05/12 00:24:24;;;;;;;3.53;2.67;;;17.00;67.00;;;;;;4961682;28;20065;-63
2023/05/12 00:26:51;;;;;;;4.28;3.03;;;16.90;67.20;;;;;;4966886;28;20045;-64
2023/05/12 00:29:17;;;;;;;8.52;3.40;;;16.80;65.60;;;;;;4970361;28;20685;-63
2023/05/12 00:31:43;;;;;;;3.88;2.40;;;16.80;66.30;;;;;;4975651;28;20033;-64
2023/05/12 00:34:08;;;;;;;4.95;3.17;;;16.80;66.60;;;;;;4963703;28;20906;-63
2023/05/12 00:36:34;;;;;;;4.38;2.72;;;16.90;68.20;;;;;;4960560;28;20078;-63
2023/05/12 00:39:01;;;;;;;5.72;2.97;;;16.80;65.40;;;;;;4960986;28;20060;-64
2023/05/12 00:41:27;;;;;;;3.90;3.05;;;16.80;66.20;;;;;;4965452;28;20415;-64
2023/05/12 00:43:53;;;;;;;5.55;3.08;;;16.80;67.20;;;;;;4969169;28;20113;-64
2023/05/12 00:46:19;;;;;;;6.57;2.97;;;16.70;66.20;;;;;;4969866;28;20080;-64
2023/05/12 00:48:45;;;;;;;5.70;3.33;;;16.70;68.10;;;;;;4967993;28;20039;-64
2023/05/12 00:51:12;;;;;;;4.78;2.90;;;16.70;68.80;;;;;;4968715;28;20049;-64
2023/05/12 00:53:38;;;;;;;4.70;3.08;;;16.70;68.10;;;;;;4969793;28;20081;-64
2023/05/12 00:56:04;;;;;;;5.30;3.10;;;16.70;67.70;;;;;;4962584;28;20057;-64
2023/05/12 00:58:31;;;;;;;4.45;3.13;;;16.70;68.80;;;;;;4958964;28;20039;-64
2023/05/12 01:00:57;;;;;;;4.72;3.17;;;16.70;68.00;;;;;;4960065;28;20169;-64
2023/05/12 01:03:23;;;;;;;5.70;3.40;;;16.70;68.10;;;;;;4963939;28;20037;-64
2023/05/12 01:06:21;;;;;;;4.32;2.88;;;16.70;68.80;;;;;;4965464;28;20038;-64
2023/05/12 01:08:47;;;;;;;5.57;3.10;;;16.70;68.30;;;;;;4966330;28;20026;-64
2023/05/12 01:11:14;;;;;;;7.05;2.88;;;16.60;68.90;;;;;;4968132;28;20117;-64
2023/05/12 01:13:40;;;;;;;3.70;2.90;;;16.60;65.70;;;;;;4968017;28;20722;-64
2023/05/12 01:16:08;;;;;;;4.18;3.22;;;16.60;66.60;;;;;;4969733;28;20042;-64
2023/05/12 01:18:38;;;;;;;3.47;2.92;;;16.60;67.60;;;;;;4964605;28;20034;-64
2023/05/12 01:21:05;;;;;;;3.55;2.97;;;16.60;68.00;;;;;;4960511;28;20035;-64
2023/05/12 01:23:41;;;;;;;4.45;3.30;;;16.60;69.20;;;;;;4960102;28;20026;-64
2023/05/12 01:26:08;;;;;;;3.30;2.80;;;16.50;66.90;;;;;;4961488;28;20050;-63
2023/05/12 01:28:36;;;;;;;4.30;3.17;;;16.50;68.60;;;;;;4959440;28;20035;-64
2023/05/12 01:31:05;;;;;;;5.22;3.00;;;16.50;69.30;;;;;;4959924;28;20035;-63
2023/05/12 01:33:33;;;;;;;5.00;2.95;;;16.50;68.30;;;;;;4975095;28;20030;-64
2023/05/12 01:35:59;;;;;;;3.55;3.15;;;16.50;69.10;;;;;;4957557;28;20035;-63
2023/05/12 01:38:26;;;;;;;5.50;3.13;;;16.50;69.60;;;;;;4962661;28;20058;-63
2023/05/12 01:40:52;;;;;;;5.88;3.15;;;16.50;67.70;;;;;;4961450;28;20031;-63
2023/05/12 01:43:18;;;;;;;7.95;3.17;;;16.50;67.20;;;;;;4964464;28;20038;-64
2023/05/12 01:45:44;;;;;;;9.90;3.20;;;16.50;67.80;;;;;;4963108;28;20047;-64
2023/05/12 01:48:10;;;;;;;3.78;2.90;;;16.50;68.10;;;;;;4961609;28;20045;-63
2023/05/12 01:50:36;;;;;;;8.00;3.40;;;16.50;67.60;;;;;;4963155;28;20059;-64
2023/05/12 01:53:05;;;;;;;4.07;2.92;;;16.40;68.00;;;;;;4963600;28;20031;-63
2023/05/12 01:55:33;;;;;;;4.30;3.17;;;16.40;67.40;;;;;;4961516;28;20105;-63
2023/05/12 01:57:59;;;;;;;5.57;3.05;;;16.40;66.40;;;;;;4962773;28;20043;-64
2023/05/12 02:00:26;;;;;;;5.05;3.10;;;16.50;69.10;;;;;;4968024;28;20041;-64
2023/05/12 02:02:54;;;;;;;9.23;3.30;;;16.40;67.80;;;;;;4977936;28;20573;-64
2023/05/12 02:05:21;;;;;;;7.10;3.58;;;16.40;67.20;;;;;;4973361;28;20027;-64
2023/05/12 02:07:48;;;;;;;6.45;3.53;;;16.40;66.40;;;;;;4966589;28;20039;-64
2023/05/12 02:10:14;;;;;;;5.00;3.30;;;16.40;67.80;;;;;;4966009;28;20042;-64
2023/05/12 02:12:40;;;;;;;6.32;3.35;;;16.40;68.40;;;;;;4968464;28;20065;-63
2023/05/12 02:15:06;;;;;;;7.63;3.85;;;16.40;69.20;;;;;;4963188;28;20043;-63
2023/05/12 02:17:35;;;;;;;5.53;3.40;;;16.40;69.10;;;;;;4959954;28;20077;-64
2023/05/12 02:20:04;;;;;;;10.32;3.58;;;16.20;67.80;;;;;;4960925;28;20035;-64
2023/05/12 02:22:30;;;;;;;4.40;2.97;;;16.30;67.80;;;;;;4966170;28;20085;-63
2023/05/12 02:24:57;;;;;;;6.85;3.35;;;16.20;68.40;;;;;;4954495;28;20039;-64
2023/05/12 02:27:23;;;;;;;7.32;2.83;;;16.20;70.60;;;;;;4960889;28;20034;-63
2023/05/12 02:29:49;;;;;;;4.25;3.28;;;16.20;70.60;;;;;;4963158;28;20102;-64
2023/05/12 02:32:16;;;;;;;8.48;3.38;;;16.10;70.20;;;;;;4964560;28;20038;-64
2023/05/12 02:34:46;;;;;;;4.78;3.03;;;16.10;71.00;;;;;;4950251;28;20035;-63
2023/05/12 02:37:12;;;;;;;5.22;3.40;;;16.10;70.00;;;;;;4950198;28;20234;-64
2023/05/12 02:39:38;;;;;;;8.65;3.80;;;16.10;69.80;;;;;;4965963;28;20711;-64
2023/05/12 02:42:04;;;;;;;4.93;3.53;;;16.00;70.40;;;;;;4968116;28;20038;-63
2023/05/12 02:44:30;;;;;;;6.65;3.20;;;16.00;69.30;;;;;;4969042;28;20049;-63
2023/05/12 02:46:56;;;;;;;5.53;3.08;;;16.00;68.80;;;;;;4964646;28;20062;-63
2023/05/12 02:49:23;;;;;;;7.55;2.85;;;15.90;68.40;;;;;;4952347;28;20030;-64
2023/05/12 02:51:49;;;;;;;7.25;3.35;;;15.90;68.40;;;;;;4961363;28;20042;-63
2023/05/12 02:54:15;;;;;;;4.18;2.90;;;15.80;68.90;;;;;;4962147;28;21169;-63
2023/05/12 02:56:41;;;;;;;4.85;3.15;;;15.90;69.30;;;;;;4963627;28;20067;-63
2023/05/12 02:59:06;;;;;;;7.97;3.55;;;15.90;70.00;;;;;;4957247;28;20046;-63
2023/05/12 03:01:32;;;;;;;5.65;3.40;;;15.90;68.00;;;;;;4958043;28;20079;-63
2023/05/12 03:03:58;;;;;;;8.70;3.35;;;15.90;69.10;;;;;;4955663;28;20096;-63
2023/05/12 03:06:24;;;;;;;4.70;3.60;;;15.90;69.30;;;;;;4954403;28;20035;-63
2023/05/12 03:08:50;;;;;;;7.53;3.00;;;16.00;70.50;;;;;;4970334;28;20031;-63
2023/05/12 03:11:16;;;;;;;5.57;3.40;;;16.00;70.60;;;;;;4961034;28;20557;-63
2023/05/12 03:13:41;;;;;;;5.60;3.53;;;15.90;69.50;;;;;;4964912;28;20140;-63
2023/05/12 03:16:07;;;;;;;6.93;3.58;;;15.90;70.30;;;;;;4961940;28;20603;-63
2023/05/12 03:18:33;;;;;;;4.63;3.50;;;15.90;70.80;;;;;;4959544;28;20697;-63
2023/05/12 03:20:59;;;;;;;7.53;4.03;;;15.80;70.00;;;;;;4959631;28;20754;-63
2023/05/12 03:23:25;;;;;;;6.68;3.70;;;15.90;70.50;;;;;;4962373;28;20546;-63
2023/05/12 03:25:51;;;;;;;5.00;3.50;;;15.80;69.80;;;;;;4959976;28;21022;-63
2023/05/12 03:28:17;;;;;;;8.77;3.30;;;15.70;69.00;;;;;;4965932;28;20801;-63
2023/05/12 03:30:43;;;;;;;6.13;3.35;;;15.70;70.20;;;;;;4967201;28;20034;-62
2023/05/12 03:33:08;;;;;;;5.35;3.55;;;15.80;71.30;;;;;;4967819;28;20058;-63
2023/05/12 03:35:34;;;;;;;6.30;3.50;;;15.80;71.70;;;;;;4964034;28;20031;-64
2023/05/12 03:38:01;;;;;;;6.47;3.10;;;15.70;70.50;;;;;;4968263;28;20553;-63
2023/05/12 03:40:27;;;;;;;6.47;3.60;;;15.70;70.70;;;;;;4962034;28;20034;-64
2023/05/12 03:42:53;;;;;;;8.10;3.65;;;15.80;72.70;;;;;;4965264;28;20822;-63
2023/05/12 03:45:19;;;;;;;5.68;3.50;;;15.70;70.80;;;;;;4958898;28;20608;-64
2023/05/12 03:47:44;;;;;;;6.10;3.75;;;15.70;70.60;;;;;;4962153;28;20070;-65
2023/05/12 03:50:11;;;;;;;7.50;3.10;;;15.70;70.80;;;;;;4955839;28;20697;-64
2023/05/12 03:52:39;;;;;;;10.90;3.63;;;15.60;69.00;;;;;;4952882;28;20035;-65
2023/05/12 03:55:06;;;;;;;5.35;3.40;;;15.70;69.60;;;;;;4951380;28;20039;-64
2023/05/12 03:57:35;;;;;;;4.50;3.63;;;15.70;70.20;;;;;;4960507;28;20041;-65
2023/05/12 04:00:02;;;;;;;6.80;3.53;;;15.70;70.50;;;;;;4960230;28;20035;-65
2023/05/12 04:02:38;;;;;;;3.83;3.10;;;15.70;69.10;;;;;;4964456;28;20857;-64
2023/05/12 04:05:07;;;;;;;6.43;3.50;;;15.60;69.40;;;;;;4966263;28;20046;-65
2023/05/12 04:07:32;;;;;;;5.18;2.85;;;15.60;69.70;;;;;;4969713;28;20118;-65
2023/05/12 04:09:59;;;;;;;5.93;3.58;;;15.60;71.50;;;;;;4971164;28;20121;-65
2023/05/12 04:12:25;;;;;;;4.47;3.35;;;15.60;71.10;;;;;;4967303;28;20030;-65
2023/05/12 04:14:50;;;;;;;5.20;3.38;;;15.50;70.00;;;;;;4956753;28;20507;-65
2023/05/12 04:17:18;;;;;;;5.90;3.55;;;15.50;70.70;;;;;;4966081;28;20067;-65
2023/05/12 04:19:45;;;;;;;8.55;3.35;;;15.40;68.80;;;;;;4968332;28;20035;-65
2023/05/12 04:22:11;;;;;;;4.18;3.03;;;15.40;72.70;;;;;;4954686;28;20039;-65
2023/05/12 04:24:37;;;;;;;10.70;3.60;;;15.40;71.40;;;;;;4971820;28;20026;-65
2023/05/12 04:27:04;;;;;;;4.68;3.35;;;15.30;69.60;;;;;;4965235;28;20041;-65
2023/05/12 04:29:30;;;;;;;6.45;3.65;;;15.20;70.40;;;;;;4980210;28;20696;-65
2023/05/12 04:31:56;;;;;;;4.93;3.40;;;15.20;71.40;;;;;;4975302;28;20038;-65
2023/05/12 04:34:22;;;;;;;10.77;3.60;;;15.20;72.50;;;;;;4955841;28;20038;-65
2023/05/12 04:36:48;;;;;;;6.85;3.33;;;15.10;69.70;;;;;;4959527;28;20388;-65
2023/05/12 04:39:14;;;;;;;4.22;3.33;;;15.10;72.00;;;;;;4960728;28;20041;-65
2023/05/12 04:41:39;;;;;;;7.05;3.38;;;15.10;72.80;;;;;;4964005;28;20035;-65
2023/05/12 04:44:06;;;;;;;8.13;3.55;;;15.00;71.10;;;;;;4967551;28;20034;-65
2023/05/12 04:46:32;;;;;;;6.22;3.63;;;15.10;73.70;;;;;;4962932;28;20581;-65
2023/05/12 04:48:59;;;;;;;5.75;3.42;;;15.00;72.30;;;;;;4965802;28;20027;-64
2023/05/12 04:51:25;;;;;;;6.30;3.85;;;15.00;73.10;;;;;;4957756;28;20033;-64
2023/05/12 04:53:51;;;;;;;4.93;3.67;;;15.00;72.10;;;;;;4947730;28;20561;-65
2023/05/12 04:56:18;;;;;;;6.53;3.20;;;15.10;72.80;;;;;;4950533;28;20038;-65
2023/05/12 04:58:44;;;;;;;7.10;3.58;;;15.10;74.20;;;;;;4951812;28;20065;-65
2023/05/12 05:01:12;;;;;;;8.73;3.45;;;15.10;74.00;;;;;;4964718;28;20050;-65
2023/05/12 05:03:38;;;;;;;4.57;3.17;;;15.10;73.30;;;;;;4964079;28;20050;-64
2023/05/12 05:06:05;;;;;;;5.32;3.53;;;15.00;69.90;;;;;;4962274;28;20957;-65
2023/05/12 05:08:31;;;;;;;11.80;3.60;;;15.00;71.30;;;;;;4952580;28;20031;-65
2023/05/12 05:10:57;;;;;;;8.07;3.42;;;15.10;71.50;;;;;;4958721;28;20038;-64
2023/05/12 05:13:24;;;;;;;7.90;3.38;;;15.20;72.80;;;;;;4960955;28;20098;-65
2023/05/12 05:15:52;;;;;;;6.05;3.88;;;15.30;70.40;;;;;;4959140;28;20055;-65
2023/05/12 05:18:18;;;;;;;6.30;3.42;;;15.50;69.60;;;;;;4963534;28;20031;-65
2023/05/12 05:20:44;;;;;;;5.65;3.20;;;15.80;69.50;;;;;;4958651;28;20038;-65
2023/05/12 05:23:11;;;;;;;5.47;3.67;;;15.90;67.20;;;;;;4964226;28;20042;-65
2023/05/12 05:25:38;;;;;;;5.15;3.25;;;16.10;66.10;;;;;;4955301;28;20031;-65
2023/05/12 05:28:04;;;;;;;8.18;4.00;;;16.40;66.40;;;;;;4969442;28;20031;-65
2023/05/12 05:30:31;;;;;;;5.80;3.70;;;16.80;63.90;;;;;;4954487;28;20148;-64
2023/05/12 05:32:57;;;;;;;8.43;3.42;;;17.30;63.40;;;;;;4964034;28;20118;-64
2023/05/12 05:35:22;;;;;;;7.53;3.40;;;17.70;61.40;;;;;;4959606;28;20031;-65
2023/05/12 05:37:52;;;;;;;4.80;3.03;;;17.90;61.00;;;;;;4956762;28;20035;-64
2023/05/12 05:40:18;;;;;;;5.63;3.35;;;18.10;60.80;;;;;;4979837;28;20027;-64
2023/05/12 05:42:44;;;;;;;6.75;3.25;;;18.40;61.80;;;;;;4964370;28;20035;-65
2023/05/12 05:45:10;;;;;;;9.95;3.95;;;18.70;61.40;;;;;;4956970;28;20034;-65
2023/05/12 05:47:37;;;;;;;4.57;3.22;;;18.60;58.10;;;;;;4952288;28;20520;-65
2023/05/12 05:50:04;;;;;;;6.43;3.35;;;18.60;59.80;;;;;;4951184;28;20132;-65
2023/05/12 05:52:32;;;;;;;7.68;3.95;;;18.50;58.10;;;;;;4953085;28;20030;-65
2023/05/12 05:54:58;;;;;;;3.90;3.35;;;18.40;58.60;;;;;;4956369;28;20811;-65
2023/05/12 05:57:27;;;;;;;5.78;3.38;;;18.50;58.70;;;;;;4952100;28;20653;-65
2023/05/12 05:59:55;;;;;;;6.07;3.70;;;18.60;59.10;;;;;;4951563;28;20085;-65
2023/05/12 06:02:23;;;;;;;7.88;3.65;;;18.70;59.30;;;;;;4959083;28;20066;-65
2023/05/12 06:04:49;;;;;;;7.07;3.60;;;18.70;57.90;;;;;;4964246;28;20043;-65
2023/05/12 06:07:15;;;;;;;10.50;3.85;;;19.00;58.30;;;;;;4959735;28;20113;-65
2023/05/12 06:09:41;;;;;;;7.25;3.30;;;19.30;57.60;;;;;;4958870;28;20027;-65
2023/05/12 06:12:07;;;;;;;7.78;3.70;;;19.50;56.50;;;;;;4960239;28;20882;-65
2023/05/12 06:14:33;;;;;;;6.50;3.53;;;19.60;56.80;;;;;;4953851;28;20550;-66
2023/05/12 06:16:59;;;;;;;5.63;3.42;;;19.90;56.90;;;;;;4962115;28;20145;-66
2023/05/12 06:19:25;;;;;;;8.55;3.10;;;20.10;55.20;;;;;;4974456;28;20825;-65
2023/05/12 06:21:51;;;;;;;6.13;3.22;;;20.10;55.00;;;;;;4961420;28;20027;-65
2023/05/12 06:24:17;;;;;;;6.72;3.53;;;20.00;55.50;;;;;;4961440;28;20022;-65
2023/05/12 06:26:43;;;;;;;7.82;3.47;;;19.80;55.40;;;;;;4967126;28;20376;-65
2023/05/12 06:29:09;;;;;;;7.55;3.10;;;19.60;56.00;;;;;;4959492;28;20026;-65
2023/05/12 06:31:35;;;;;;;5.60;3.30;;;19.40;56.50;;;;;;4952446;28;20033;-64
2023/05/12 06:34:01;;;;;;;7.57;3.53;;;19.40;56.50;;;;;;4950474;28;20135;-65
2023/05/12 06:36:29;;;;;;;6.93;3.28;;;19.20;56.20;;;;;;4950919;28;20049;-65
2023/05/12 06:38:55;;;;;;;7.47;3.70;;;19.10;57.30;;;;;;4957215;28;20064;-65
2023/05/12 06:41:23;;;;;;;5.32;3.15;;;19.00;57.10;;;;;;4957076;28;20430;-65
2023/05/12 06:43:50;;;;;;;8.48;3.15;;;19.00;57.70;;;;;;4961677;28;20137;-65
2023/05/12 06:46:16;;;;;;;5.47;2.83;;;19.00;56.80;;;;;;4958858;28;20039;-65
2023/05/12 06:48:42;;;;;;;5.75;2.92;;;19.00;57.50;;;;;;4950959;28;20035;-65
2023/05/12 06:51:08;;;;;;;6.40;2.97;;;19.10;58.10;;;;;;4964283;28;20026;-65
2023/05/12 06:53:36;;;;;;;5.82;3.40;;;19.20;57.40;;;;;;4964194;28;20956;-65
2023/05/12 06:56:06;;;;;;;6.10;3.05;;;19.20;56.10;;;;;;4960902;28;20837;-65
2023/05/12 06:58:32;;;;;;;6.63;3.33;;;19.30;56.30;;;;;;4952261;28;20042;-65
2023/05/12 07:00:58;;;;;;;4.70;2.70;;;19.40;56.00;;;;;;4958838;28;20038;-65
2023/05/12 07:03:23;;;;;;;5.82;2.83;;;19.50;55.60;;;;;;4966656;28;20585;-63
2023/05/12 07:05:50;;;;;;;8.82;2.97;;;19.60;56.20;;;;;;4966397;28;20125;-64
2023/05/12 07:08:16;;;;;;;8.43;3.08;;;19.60;56.10;;;;;;4962769;28;20037;-64
2023/05/12 07:10:42;;;;;;;4.00;2.80;;;19.70;56.10;;;;;;4960609;28;20038;-64
2023/05/12 07:13:07;;;;;;;8.13;3.30;;;19.70;55.90;;;;;;4963312;28;20104;-63
2023/05/12 07:15:33;;;;;;;3.90;2.92;;;19.70;54.80;;;;;;4960235;28;20426;-65
2023/05/12 07:17:59;;;;;;;5.03;2.70;;;19.80;55.20;;;;;;4962773;28;20125;-64
2023/05/12 07:20:25;;;;;;;8.30;2.88;;;19.80;55.60;;;;;;4965821;28;20352;-63
2023/05/12 07:22:53;;;;;;;5.68;3.28;;;19.90;56.50;;;;;;4969222;28;20125;-63
2023/05/12 07:25:19;;;;;;;7.55;2.88;;;20.00;56.30;;;;;;4967279;28;20082;-63
2023/05/12 07:27:45;;;;;;;7.95;2.72;;;20.10;56.20;;;;;;4958432;28;20097;-61
2023/05/12 07:30:11;;;;;;;6.00;2.97;;;20.10;54.50;;;;;;4966908;28;20034;-63
2023/05/12 07:32:37;;;;;;;7.72;2.90;;;20.20;54.80;;;;;;4963096;28;20031;-63
2023/05/12 07:35:03;;;;;;;4.43;2.80;;;20.30;54.40;;;;;;4970523;28;20061;-63
2023/05/12 07:37:29;;;;;;;3.88;2.45;;;20.30;53.40;;;;;;4958118;28;20038;-62
2023/05/12 07:39:55;;;;;;;7.38;2.47;;;20.30;53.50;;;;;;4965344;28;20168;-63
2023/05/12 07:42:21;;;;;;;3.70;2.25;;;20.40;52.50;;;;;;4959269;28;20026;-62
2023/05/12 07:44:47;;;;;;;5.30;2.63;;;20.30;50.40;;;;;;4963836;28;20769;-62
2023/05/12 07:47:13;;;;;;;3.67;2.47;;;20.30;51.90;;;;;;4960590;28;20038;-62
2023/05/12 07:49:39;;;;;;;5.40;2.63;;;20.40;50.80;;;;;;4963295;28;20030;-62
2023/05/12 07:52:05;;;;;;;4.03;2.20;;;20.50;50.60;;;;;;4956079;28;20825;-62
2023/05/12 07:54:31;;;;;;;6.03;2.42;;;20.60;50.00;;;;;;4965838;28;20109;-61
2023/05/12 07:56:57;;;;;;;4.20;2.40;;;20.80;50.70;;;;;;4958229;28;20034;-62
2023/05/12 07:59:23;;;;;;;3.97;2.40;;;20.90;49.50;;;;;;4961061;28;20034;-64
2023/05/12 08:01:48;;;;;;;6.88;2.35;;;20.90;47.80;;;;;;4963644;28;20589;-64
2023/05/12 08:04:14;;;;;;;5.25;2.42;;;21.00;48.30;;;;;;4967179;28;20041;-65
2023/05/12 08:06:40;;;;;;;4.28;2.30;;;21.10;48.10;;;;;;4971689;28;20656;-65
2023/05/12 08:09:06;;;;;;;6.13;2.60;;;21.10;47.50;;;;;;4957520;28;20771;-64
2023/05/12 08:11:31;;;;;;;8.48;2.00;;;21.20;47.50;;;;;;4956464;28;20174;-65
2023/05/12 08:13:57;;;;;;;3.53;2.00;;;21.20;47.30;;;;;;4961084;28;20062;-65
2023/05/12 08:16:23;;;;;;;3.47;1.85;;;21.20;44.40;;;;;;4963356;28;20058;-64
2023/05/12 08:18:49;;;;;;;4.22;2.53;;;21.20;45.40;;;;;;4965540;28;20049;-64
2023/05/12 08:21:14;;;;;;;2.63;2.15;;;21.30;47.20;;;;;;4964349;28;20042;-64
2023/05/12 08:23:40;;;;;;;4.45;2.05;;;21.40;45.30;;;;;;4958034;28;20077;-62
2023/05/12 08:26:06;;;;;;;4.07;2.42;;;21.40;45.80;;;;;;4961959;28;20777;-61
2023/05/12 08:28:32;;;;;;;2.80;2.20;;;21.50;46.60;;;;;;4956523;28;20031;-63
2023/05/12 08:30:58;;;;;;;4.03;2.28;;;21.60;46.90;;;;;;4960603;28;20031;-63
2023/05/12 08:33:24;;;;;;;2.85;1.98;;;21.60;44.60;;;;;;4957361;28;20058;-65
2023/05/12 08:35:50;;;;;;;4.85;2.08;;;21.60;44.40;;;;;;4966079;28;20093;-66
2023/05/12 08:38:16;;;;;;;5.53;2.10;;;21.50;43.90;;;;;;4949988;28;20043;-65
2023/05/12 08:41:12;;;;;;;7.03;1.80;;;21.50;44.10;;;;;;4951960;28;20033;-65
2023/05/12 08:43:52;;;;;;;7.28;2.03;;;21.60;44.70;;;;;;4961287;28;20037;-65
2023/05/12 08:46:19;;;;;;;6.13;2.15;;;21.60;43.40;;;;;;4963452;28;20058;-66
2023/05/12 08:48:48;;;;;;;4.13;2.50;;;21.60;43.80;;;;;;4961045;28;20047;-65
2023/05/12 08:51:16;;;;;;;2.75;2.08;;;21.70;42.90;;;;;;4958603;28;20840;-65
2023/05/12 08:53:43;;;;;;;5.35;2.55;;;21.90;43.50;;;;;;4967842;28;20735;-66
2023/05/12 08:56:10;;;;;;;5.82;2.55;;;22.00;43.10;;;;;;4962897;28;20042;-69
2023/05/12 08:58:36;;;;;;;5.72;2.50;;;21.90;42.50;;;;;;4965920;28;20712;-64
2023/05/12 09:01:06;;;;;;;3.08;2.15;;;22.10;44.10;;;;;;4967706;28;20526;-64
2023/05/12 09:03:35;;;;;;;6.95;2.83;;;22.20;44.60;;;;;;4957536;28;20045;-64
2023/05/12 09:06:02;;;;;;;6.80;2.72;;;22.60;45.90;;;;;;4967910;28;20034;-64
2023/05/12 09:08:31;;;;;;;5.45;2.10;;;22.90;43.10;;;;;;4963614;28;20038;-62
2023/05/12 09:10:59;;;;;;;4.22;3.20;;;23.00;41.00;;;;;;4967746;28;20027;-62
2023/05/12 09:13:30;;;;;;;4.43;2.78;;;23.00;41.60;;;;;;4967402;28;20034;-64
2023/05/12 09:16:00;;;;;;;5.38;2.85;;;23.00;40.20;;;;;;4971749;28;20034;-63
2023/05/12 09:18:42;;;;;;;10.18;3.28;;;23.00;41.40;;;;;;4963633;28;20102;-64
2023/05/12 09:21:09;;;;;;;4.35;2.50;;;23.10;41.30;;;;;;4960645;28;20074;-64
2023/05/12 09:23:34;;;;;;;2.83;1.90;;;23.10;41.00;;;;;;4967087;28;20113;-64
2023/05/12 09:26:00;;;;;;;5.70;2.00;;;23.10;38.40;;;;;;4958065;28;20047;-63
2023/05/12 09:28:37;;;;;;;5.03;1.83;;;23.00;40.00;;;;;;4973087;28;20045;-63
2023/05/12 09:31:14;;;;;;;3.63;1.60;;;23.00;40.00;;;;;;4969837;28;20027;-64
2023/05/12 09:33:40;;;;;;;6.93;1.83;;;23.00;38.10;;;;;;4973700;28;20034;-64
2023/05/12 09:36:06;;;;;;;2.30;1.90;;;23.40;38.60;;;;;;4962558;28;20042;-64
2023/05/12 09:38:32;;;;;;;3.90;2.15;;;23.90;37.80;;;;;;4966649;28;20030;-63
2023/05/12 09:40:58;;;;;;;3.20;1.90;;;24.10;38.30;;;;;;4963790;28;20038;-65
2023/05/12 09:43:24;;;;;;;3.17;1.80;;;24.30;36.00;;;;;;4972963;28;20030;-64
2023/05/12 09:45:50;;;;;;;2.50;1.85;;;24.40;38.40;;;;;;4975240;28;20495;-65
2023/05/12 09:48:16;;;;;;;4.28;1.80;;;24.40;39.00;;;;;;4970954;28;20041;-64
2023/05/12 09:50:49;;;;;;;5.85;1.90;;;24.30;37.50;;;;;;4962463;28;20030;-64
2023/05/12 09:53:17;;;;;;;3.08;2.00;;;24.30;38.50;;;;;;4965992;28;20062;-64
2023/05/12 09:55:44;;;;;;;4.80;2.10;;;24.10;37.50;;;;;;4967735;28;20118;-64
2023/05/12 09:58:12;;;;;;;9.00;2.22;;;23.90;37.70;;;;;;4971761;28;20070;-64
2023/05/12 10:00:40;;;;;;;2.33;1.73;;;23.50;38.40;;;;;;4968114;28;20034;-64
2023/05/12 10:03:12;;;;;;;5.03;2.30;;;23.60;38.60;;;;;;4963969;28;20034;-64
2023/05/12 10:05:48;;;;;;;2.95;1.90;;;23.60;39.00;;;;;;4971536;28;20125;-64
2023/05/12 10:08:25;;;;;;;4.55;2.42;;;23.80;39.30;;;;;;4964464;28;20034;-64
2023/05/12 10:10:52;;;;;;;6.65;3.60;;;23.80;37.00;;;;;;4971694;28;20041;-65
2023/05/12 10:13:18;;;;;;;5.00;3.22;;;23.90;39.50;;;;;;4972363;28;20842;-64
2023/05/12 10:15:47;;;;;;;8.35;5.38;;;24.10;38.80;;;;;;4971675;28;20813;-64
2023/05/12 10:18:15;;;;;;;7.07;3.42;;;24.40;38.70;;;;;;4966840;28;20117;-65
2023/05/12 10:20:43;;;;;;;7.80;2.30;;;24.60;39.50;;;;;;4971607;28;20034;-64
2023/05/12 10:23:12;;;;;;;3.45;1.95;;;24.50;36.80;;;;;;4973284;28;20877;-65
2023/05/12 10:25:41;;;;;;;6.32;2.20;;;24.60;37.60;;;;;;4971848;28;20031;-65
2023/05/12 10:28:07;;;;;;;7.15;2.20;;;24.70;37.80;;;;;;4962431;28;20125;-64
2023/05/12 10:30:34;;;;;;;4.05;2.08;;;24.80;37.90;;;;;;4967050;28;20121;-64
2023/05/12 10:33:01;;;;;;;3.47;2.35;;;25.10;38.00;;;;;;4966020;28;20035;-64
2023/05/12 10:35:34;;;;;;;5.18;3.20;;;25.40;36.20;;;;;;4970364;28;20038;-64
2023/05/12 10:38:05;;;;;;;5.47;2.00;;;25.70;37.90;;;;;;4970434;28;20034;-64
2023/05/12 10:40:30;;;;;;;6.43;2.30;;;25.70;34.80;;;;;;4970721;28;20041;-63
2023/05/12 10:43:00;;;;;;;3.25;2.50;;;25.40;36.60;;;;;;4969492;28;20030;-63
2023/05/12 10:45:26;;;;;;;7.03;2.28;;;25.30;37.70;;;;;;4967003;28;20042;-63
2023/05/12 10:48:03;;;;;;;4.45;2.40;;;25.20;36.10;;;;;;4964030;28;20042;-63
2023/05/12 10:50:29;;;;;;;5.65;2.30;;;25.20;38.50;;;;;;4976030;28;20145;-63
2023/05/12 10:52:56;;;;;;;5.18;2.17;;;25.40;38.20;;;;;;4968751;28;20049;-62
2023/05/12 10:55:41;;;;;;;6.15;2.40;;;25.50;37.20;;;;;;4987133;28;20034;-63
2023/05/12 10:58:11;;;;;;;3.83;2.20;;;25.60;38.90;;;;;;4980611;28;20495;-64
2023/05/12 11:00:45;;;;;;;3.05;1.80;;;25.60;37.20;;;;;;4984910;28;20376;-64
2023/05/12 11:03:12;;;;;;;5.65;2.17;;;25.60;36.90;;;;;;4983640;28;20037;-63
2023/05/12 11:05:38;;;;;;;4.43;2.00;;;25.30;37.90;;;;;;4980639;28;20085;-63
2023/05/12 11:08:04;;;;;;;2.28;1.80;;;25.00;38.00;;;;;;4981065;28;20522;-63
2023/05/12 11:10:30;;;;;;;5.22;1.95;;;24.80;37.40;;;;;;4986021;28;20033;-63
2023/05/12 11:12:56;;;;;;;3.45;2.00;;;24.50;37.10;;;;;;4987234;28;20088;-63
2023/05/12 11:15:21;;;;;;;3.33;1.92;;;24.50;37.70;;;;;;4985389;28;20030;-63
2023/05/12 11:17:47;;;;;;;3.33;2.00;;;24.30;37.80;;;;;;4986709;28;20249;-63
2023/05/12 11:20:24;;;;;;;6.10;1.90;;;24.40;39.70;;;;;;4978424;28;20044;-64
2023/05/12 11:22:50;;;;;;;3.00;1.92;;;24.40;37.40;;;;;;4988780;28;20092;-63
2023/05/12 11:25:16;;;;;;;3.47;2.30;;;24.30;38.40;;;;;;4986901;28;20042;-62
2023/05/12 11:27:49;;;;;;;2.55;2.10;;;24.20;38.00;;;;;;4982429;28;20041;-63
2023/05/12 11:30:15;;;;;;;5.35;2.58;;;24.30;38.90;;;;;;4977784;28;20034;-63
2023/05/12 11:32:42;;;;;;;3.45;2.42;;;24.20;40.30;;;;;;4986766;28;20030;-63
2023/05/12 11:35:13;;;;;;;4.55;2.30;;;24.30;40.90;;;;;;4986582;28;20034;-63
2023/05/12 11:37:40;;;;;;;4.20;2.42;;;24.30;40.30;;;;;;4988831;28;20827;-64
2023/05/12 11:40:15;;;;;;;10.77;3.33;;;24.40;41.00;;;;;;4988002;28;20046;-63
2023/05/12 11:42:46;;;;;;;3.97;2.50;;;24.20;39.40;;;;;;4983847;28;20036;-63
2023/05/12 11:45:27;;;;;;;6.57;2.60;;;24.10;39.50;;;;;;4980288;28;20045;-63
2023/05/12 11:48:13;;;;;;;4.95;2.17;;;23.90;40.10;;;;;;4983302;28;20037;-63
2023/05/12 11:50:46;;;;;;;4.13;2.30;;;23.70;42.40;;;;;;4965784;28;20773;-63
2023/05/12 11:53:14;;;;;;;5.35;2.85;;;23.60;40.90;;;;;;4977624;28;20022;-63
2023/05/12 11:55:51;;;;;;;12.27;3.88;;;23.50;42.00;;;;;;4983625;28;20037;-63
2023/05/12 11:58:29;;;;;;;7.53;3.55;;;23.70;42.70;;;;;;4982201;28;20058;-63
2023/05/12 12:00:56;;;;;;;5.05;2.45;;;23.90;41.60;;;;;;4983404;28;20487;-62
2023/05/12 12:03:23;;;;;;;7.05;3.92;;;24.10;39.20;;;;;;4985655;28;20035;-63
2023/05/12 12:06:05;;;;;;;3.13;2.42;;;24.10;40.70;;;;;;4988355;28;20372;-63
2023/05/12 12:08:31;;;;;;;7.90;4.35;;;23.90;40.50;;;;;;4982890;28;20482;-63
2023/05/12 12:10:57;;;;;;;7.28;4.00;;;23.70;40.90;;;;;;4984401;28;20038;-63
2023/05/12 12:13:25;;;;;;;12.90;6.82;;;23.50;42.00;;;;;;4982249;28;20056;-63
2023/05/12 12:15:51;;;;;;;10.55;3.75;;;23.60;41.30;;;;;;4981902;28;20041;-62
2023/05/12 12:18:17;;;;;;;4.20;2.25;;;23.60;40.90;;;;;;4983460;28;20031;-63
2023/05/12 12:20:45;;;;;;;3.92;3.00;;;23.60;39.30;;;;;;4990593;28;20030;-63
2023/05/12 12:23:11;;;;;;;5.65;3.85;;;23.70;41.80;;;;;;4986856;28;20120;-63
2023/05/12 12:25:37;;;;;;;4.65;2.65;;;23.80;41.30;;;;;;4991469;28;20033;-63
2023/05/12 12:28:03;;;;;;;4.13;1.85;;;23.80;41.20;;;;;;4986743;28;20141;-63
2023/05/12 12:30:29;;;;;;;5.40;2.33;;;23.70;40.40;;;;;;4989411;28;20022;-63
2023/05/12 12:32:55;;;;;;;3.80;3.10;;;23.50;39.80;;;;;;4990143;28;20109;-64
2023/05/12 12:35:21;;;;;;;3.60;2.03;;;23.60;39.90;;;;;;4990832;28;20632;-63
2023/05/12 12:37:52;;;;;;;5.10;2.47;;;23.50;38.70;;;;;;4985171;28;20073;-63
2023/05/12 12:40:18;;;;;;;4.97;2.28;;;23.50;40.00;;;;;;4987703;28;20129;-64
2023/05/12 12:42:45;;;;;;;3.30;2.30;;;23.60;40.00;;;;;;4990138;28;20072;-64
2023/05/12 12:45:12;;;;;;;4.80;1.88;;;23.60;38.70;;;;;;4975239;28;20133;-63
2023/05/12 12:47:38;;;;;;;4.25;1.77;;;23.40;39.00;;;;;;4973215;28;20858;-63